sensor_id;sensor_type;location;lat;lon;timestamp;P1;durP1;ratioP1;P2;durP2;ratioP2
23360;SDS011;11852;50.082;18.554;2023-05-24T00:08:16;7.0;;;5.0;;
23360;SDS011;11852;50.082;18.554;2023-05-24T00:12:50;7.0;;;5.0;;
23360;SDS011;11852;50.082;18.554;2023-05-24T00:14:31;7.0;;;5.0;;
23360;SDS011;11852;50.082;18.554;2023-05-24T00:19:03;7.0;;;5.0;;
23360;SDS011;11852;50.082;18.554;2023-05-24T00:48:26;10.0;;;6.0;;
23360;SDS011;11852;50.082;18.554;2023-05-24T00:49:48;10.0;;;7.0;;
23360;SDS011;11852;50.082;18.554;2023-05-24T00:50:56;9.0;;;7.0;;
23360;SDS011;11852;50.082;18.554;2023-05-24T00:52:04;12.0;;;8.0;;
23360;SDS011;11852;50.082;18.554;2023-05-24T00:53:43;12.0;;;8.0;;
23360;SDS011;11852;50.082;18.554;2023-05-24T00:55:21;12.0;;;8.0;;
23360;SDS011;11852;50.082;18.554;2023-05-24T00:56:32;10.0;;;7.0;;
23360;SDS011;11852;50.082;18.554;2023-05-24T00:57:49;10.0;;;7.0;;
23360;SDS011;11852;50.082;18.554;2023-05-24T00:58:56;11.0;;;6.0;;
23360;SDS011;11852;50.082;18.554;2023-05-24T01:00:05;11.0;;;7.0;;
23360;SDS011;11852;50.082;18.554;2023-05-24T01:01:12;11.0;;;8.0;;
23360;SDS011;11852;50.082;18.554;2023-05-24T01:02:20;15.0;;;8.0;;
23360;SDS011;11852;50.082;18.554;2023-05-24T01:03:30;10.0;;;8.0;;
23360;SDS011;11852;50.082;18.554;2023-05-24T01:04:37;12.0;;;8.0;;
23360;SDS011;11852;50.082;18.554;2023-05-24T01:05:44;12.0;;;8.0;;
23360;SDS011;11852;50.082;18.554;2023-05-24T01:08:17;9.0;;;7.0;;
23360;SDS011;11852;50.082;18.554;2023-05-24T01:13:11;11.0;;;7.0;;
23360;SDS011;11852;50.082;18.554;2023-05-24T01:18:04;12.0;;;8.0;;
23360;SDS011;11852;50.082;18.554;2023-05-24T01:20:24;11.0;;;8.0;;
23360;SDS011;11852;50.082;18.554;2023-05-24T01:27:43;11.0;;;8.0;;
23360;SDS011;11852;50.082;18.554;2023-05-24T01:28:51;14.0;;;9.0;;
23360;SDS011;11852;50.082;18.554;2023-05-24T01:29:58;12.0;;;9.0;;
23360;SDS011;11852;50.082;18.554;2023-05-24T01:31:05;11.0;;;8.0;;
23360;SDS011;11852;50.082;18.554;2023-05-24T01:32:12;10.0;;;7.0;;
23360;SDS011;11852;50.082;18.554;2023-05-24T01:33:19;11.0;;;9.0;;
23360;SDS011;11852;50.082;18.554;2023-05-24T01:34:27;12.0;;;9.0;;
23360;SDS011;11852;50.082;18.554;2023-05-24T01:35:34;11.0;;;8.0;;
23360;SDS011;11852;50.082;18.554;2023-05-24T01:36:41;12.0;;;7.0;;
23360;SDS011;11852;50.082;18.554;2023-05-24T01:37:49;13.0;;;9.0;;
23360;SDS011;11852;50.082;18.554;2023-05-24T01:38:58;12.0;;;9.0;;
23360;SDS011;11852;50.082;18.554;2023-05-24T01:40:05;12.0;;;9.0;;
23360;SDS011;11852;50.082;18.554;2023-05-24T01:42:39;12.0;;;9.0;;
23360;SDS011;11852;50.082;18.554;2023-05-24T01:43:46;12.0;;;9.0;;
23360;SDS011;11852;50.082;18.554;2023-05-24T01:47:27;14.0;;;8.0;;
23360;SDS011;11852;50.082;18.554;2023-05-24T01:49:50;11.0;;;8.0;;
23360;SDS011;11852;50.082;18.554;2023-05-24T01:50:57;13.0;;;9.0;;
23360;SDS011;11852;50.082;18.554;2023-05-24T01:52:07;12.0;;;8.0;;
23360;SDS011;11852;50.082;18.554;2023-05-24T01:53:13;12.0;;;10.0;;
23360;SDS011;11852;50.082;18.554;2023-05-24T01:54:22;16.0;;;9.0;;
23360;SDS011;11852;50.082;18.554;2023-05-24T01:55:27;11.0;;;8.0;;
23360;SDS011;11852;50.082;18.554;2023-05-24T01:56:34;14.0;;;9.0;;
23360;SDS011;11852;50.082;18.554;2023-05-24T01:57:43;12.0;;;9.0;;
23360;SDS011;11852;50.082;18.554;2023-05-24T01:58:50;13.0;;;9.0;;
23360;SDS011;11852;50.082;18.554;2023-05-24T01:59:57;13.0;;;9.0;;
23360;SDS011;11852;50.082;18.554;2023-05-24T02:01:05;13.0;;;8.0;;
23360;SDS011;11852;50.082;18.554;2023-05-24T02:02:13;12.0;;;9.0;;
23360;SDS011;11852;50.082;18.554;2023-05-24T02:03:20;13.0;;;9.0;;
23360;SDS011;11852;50.082;18.554;2023-05-24T02:04:27;12.0;;;9.0;;
23360;SDS011;11852;50.082;18.554;2023-05-24T02:05:34;13.0;;;9.0;;
23360;SDS011;11852;50.082;18.554;2023-05-24T02:06:42;13.0;;;9.0;;
23360;SDS011;11852;50.082;18.554;2023-05-24T02:07:50;14.0;;;10.0;;
23360;SDS011;11852;50.082;18.554;2023-05-24T02:08:57;10.0;;;8.0;;
23360;SDS011;11852;50.082;18.554;2023-05-24T02:10:05;13.0;;;9.0;;
23360;SDS011;11852;50.082;18.554;2023-05-24T02:11:13;13.0;;;10.0;;
23360;SDS011;11852;50.082;18.554;2023-05-24T02:12:20;11.0;;;9.0;;
23360;SDS011;11852;50.082;18.554;2023-05-24T02:13:28;13.0;;;9.0;;
23360;SDS011;11852;50.082;18.554;2023-05-24T02:14:36;11.0;;;9.0;;
23360;SDS011;11852;50.082;18.554;2023-05-24T02:15:44;13.0;;;9.0;;
23360;SDS011;11852;50.082;18.554;2023-05-24T02:16:51;12.0;;;9.0;;
23360;SDS011;11852;50.082;18.554;2023-05-24T02:17:59;13.0;;;9.0;;
23360;SDS011;11852;50.082;18.554;2023-05-24T02:19:07;13.0;;;9.0;;
23360;SDS011;11852;50.082;18.554;2023-05-24T02:20:13;14.0;;;10.0;;
23360;SDS011;11852;50.082;18.554;2023-05-24T02:21:23;14.0;;;9.0;;
23360;SDS011;11852;50.082;18.554;2023-05-24T02:22:30;12.0;;;9.0;;
23360;SDS011;11852;50.082;18.554;2023-05-24T02:23:37;12.0;;;9.0;;
23360;SDS011;11852;50.082;18.554;2023-05-24T02:24:45;13.0;;;10.0;;
23360;SDS011;11852;50.082;18.554;2023-05-24T02:25:52;11.0;;;9.0;;
23360;SDS011;11852;50.082;18.554;2023-05-24T02:27:00;12.0;;;9.0;;
23360;SDS011;11852;50.082;18.554;2023-05-24T02:28:08;12.0;;;9.0;;
23360;SDS011;11852;50.082;18.554;2023-05-24T02:29:15;13.0;;;10.0;;
23360;SDS011;11852;50.082;18.554;2023-05-24T02:30:23;12.0;;;9.0;;
23360;SDS011;11852;50.082;18.554;2023-05-24T02:31:33;14.0;;;10.0;;
23360;SDS011;11852;50.082;18.554;2023-05-24T02:32:41;13.0;;;10.0;;
23360;SDS011;11852;50.082;18.554;2023-05-24T02:33:51;12.0;;;9.0;;
23360;SDS011;11852;50.082;18.554;2023-05-24T02:34:59;14.0;;;10.0;;
23360;SDS011;11852;50.082;18.554;2023-05-24T02:36:06;15.0;;;11.0;;
23360;SDS011;11852;50.082;18.554;2023-05-24T02:37:14;14.0;;;11.0;;
23360;SDS011;11852;50.082;18.554;2023-05-24T02:38:22;12.0;;;10.0;;
23360;SDS011;11852;50.082;18.554;2023-05-24T02:39:29;14.0;;;10.0;;
23360;SDS011;11852;50.082;18.554;2023-05-24T02:40:37;15.0;;;12.0;;
23360;SDS011;11852;50.082;18.554;2023-05-24T02:41:43;16.0;;;11.0;;
23360;SDS011;11852;50.082;18.554;2023-05-24T02:42:51;16.0;;;11.0;;
23360;SDS011;11852;50.082;18.554;2023-05-24T02:43:58;14.0;;;10.0;;
23360;SDS011;11852;50.082;18.554;2023-05-24T02:45:06;14.0;;;10.0;;
23360;SDS011;11852;50.082;18.554;2023-05-24T02:46:13;15.0;;;11.0;;
23360;SDS011;11852;50.082;18.554;2023-05-24T02:47:22;14.0;;;11.0;;
23360;SDS011;11852;50.082;18.554;2023-05-24T02:48:30;16.0;;;12.0;;
23360;SDS011;11852;50.082;18.554;2023-05-24T02:49:38;16.0;;;11.0;;
23360;SDS011;11852;50.082;18.554;2023-05-24T02:50:45;13.0;;;11.0;;
23360;SDS011;11852;50.082;18.554;2023-05-24T02:51:54;16.0;;;11.0;;
23360;SDS011;11852;50.082;18.554;2023-05-24T02:53:04;15.0;;;11.0;;
23360;SDS011;11852;50.082;18.554;2023-05-24T02:54:11;14.0;;;11.0;;
23360;SDS011;11852;50.082;18.554;2023-05-24T02:55:18;14.0;;;11.0;;
23360;SDS011;11852;50.082;18.554;2023-05-24T02:56:25;16.0;;;11.0;;
23360;SDS011;11852;50.082;18.554;2023-05-24T02:57:36;17.0;;;12.0;;
23360;SDS011;11852;50.082;18.554;2023-05-24T02:58:46;14.0;;;11.0;;
23360;SDS011;11852;50.082;18.554;2023-05-24T02:59:53;14.0;;;10.0;;
23360;SDS011;11852;50.082;18.554;2023-05-24T03:01:00;14.0;;;11.0;;
23360;SDS011;11852;50.082;18.554;2023-05-24T03:02:09;15.0;;;12.0;;
23360;SDS011;11852;50.082;18.554;2023-05-24T03:03:16;13.0;;;11.0;;
23360;SDS011;11852;50.082;18.554;2023-05-24T03:04:26;16.0;;;11.0;;
23360;SDS011;11852;50.082;18.554;2023-05-24T03:05:34;15.0;;;12.0;;
23360;SDS011;11852;50.082;18.554;2023-05-24T03:06:42;15.0;;;12.0;;
23360;SDS011;11852;50.082;18.554;2023-05-24T03:07:49;15.0;;;11.0;;
23360;SDS011;11852;50.082;18.554;2023-05-24T03:08:56;14.0;;;12.0;;
23360;SDS011;11852;50.082;18.554;2023-05-24T03:10:07;15.0;;;11.0;;
23360;SDS011;11852;50.082;18.554;2023-05-24T03:11:16;15.0;;;11.0;;
23360;SDS011;11852;50.082;18.554;2023-05-24T03:12:24;15.0;;;11.0;;
23360;SDS011;11852;50.082;18.554;2023-05-24T03:13:34;14.0;;;12.0;;
23360;SDS011;11852;50.082;18.554;2023-05-24T03:14:41;12.0;;;10.0;;
23360;SDS011;11852;50.082;18.554;2023-05-24T03:15:51;12.0;;;9.0;;
23360;SDS011;11852;50.082;18.554;2023-05-24T03:16:58;13.0;;;10.0;;
23360;SDS011;11852;50.082;18.554;2023-05-24T03:18:05;11.0;;;10.0;;
23360;SDS011;11852;50.082;18.554;2023-05-24T03:19:13;11.0;;;8.0;;
23360;SDS011;11852;50.082;18.554;2023-05-24T03:20:19;12.0;;;8.0;;
23360;SDS011;11852;50.082;18.554;2023-05-24T03:21:30;10.0;;;8.0;;
23360;SDS011;11852;50.082;18.554;2023-05-24T03:22:37;10.0;;;8.0;;
23360;SDS011;11852;50.082;18.554;2023-05-24T03:23:44;11.0;;;9.0;;
23360;SDS011;11852;50.082;18.554;2023-05-24T03:24:51;11.0;;;7.0;;
23360;SDS011;11852;50.082;18.554;2023-05-24T03:26:03;12.0;;;9.0;;
23360;SDS011;11852;50.082;18.554;2023-05-24T03:27:11;10.0;;;8.0;;
23360;SDS011;11852;50.082;18.554;2023-05-24T03:28:22;11.0;;;9.0;;
23360;SDS011;11852;50.082;18.554;2023-05-24T03:29:29;12.0;;;8.0;;
23360;SDS011;11852;50.082;18.554;2023-05-24T03:30:39;11.0;;;9.0;;
23360;SDS011;11852;50.082;18.554;2023-05-24T03:31:49;9.0;;;8.0;;
23360;SDS011;11852;50.082;18.554;2023-05-24T03:32:56;9.0;;;8.0;;
23360;SDS011;11852;50.082;18.554;2023-05-24T03:34:03;10.0;;;7.0;;
23360;SDS011;11852;50.082;18.554;2023-05-24T03:35:11;12.0;;;9.0;;
23360;SDS011;11852;50.082;18.554;2023-05-24T03:36:18;8.0;;;7.0;;
23360;SDS011;11852;50.082;18.554;2023-05-24T03:37:28;8.0;;;6.0;;
23360;SDS011;11852;50.082;18.554;2023-05-24T03:38:35;9.0;;;7.0;;
23360;SDS011;11852;50.082;18.554;2023-05-24T03:39:42;8.0;;;6.0;;
23360;SDS011;11852;50.082;18.554;2023-05-24T03:40:49;8.0;;;4.0;;
23360;SDS011;11852;50.082;18.554;2023-05-24T03:41:56;6.0;;;4.0;;
23360;SDS011;11852;50.082;18.554;2023-05-24T03:43:04;9.0;;;4.0;;
23360;SDS011;11852;50.082;18.554;2023-05-24T03:44:11;6.0;;;4.0;;
23360;SDS011;11852;50.082;18.554;2023-05-24T03:45:19;6.0;;;3.0;;
23360;SDS011;11852;50.082;18.554;2023-05-24T03:46:26;6.0;;;3.0;;
23360;SDS011;11852;50.082;18.554;2023-05-24T03:47:33;5.0;;;3.0;;
23360;SDS011;11852;50.082;18.554;2023-05-24T03:48:41;8.0;;;4.0;;
23360;SDS011;11852;50.082;18.554;2023-05-24T03:49:51;5.0;;;3.0;;
23360;SDS011;11852;50.082;18.554;2023-05-24T03:51:01;6.0;;;3.0;;
23360;SDS011;11852;50.082;18.554;2023-05-24T03:52:11;6.0;;;3.0;;
23360;SDS011;11852;50.082;18.554;2023-05-24T03:53:19;6.0;;;3.0;;
23360;SDS011;11852;50.082;18.554;2023-05-24T03:54:26;5.0;;;3.0;;
23360;SDS011;11852;50.082;18.554;2023-05-24T03:55:36;6.0;;;3.0;;
23360;SDS011;11852;50.082;18.554;2023-05-24T03:56:43;7.0;;;4.0;;
23360;SDS011;11852;50.082;18.554;2023-05-24T03:57:50;6.0;;;3.0;;
23360;SDS011;11852;50.082;18.554;2023-05-24T03:58:58;6.0;;;4.0;;
23360;SDS011;11852;50.082;18.554;2023-05-24T04:00:08;6.0;;;4.0;;
23360;SDS011;11852;50.082;18.554;2023-05-24T04:01:15;6.0;;;3.0;;
23360;SDS011;11852;50.082;18.554;2023-05-24T04:02:23;6.0;;;3.0;;
23360;SDS011;11852;50.082;18.554;2023-05-24T04:03:30;7.0;;;3.0;;
23360;SDS011;11852;50.082;18.554;2023-05-24T04:04:38;8.0;;;3.0;;
23360;SDS011;11852;50.082;18.554;2023-05-24T04:05:45;6.0;;;3.0;;
23360;SDS011;11852;50.082;18.554;2023-05-24T04:06:52;5.0;;;3.0;;
23360;SDS011;11852;50.082;18.554;2023-05-24T04:07:59;7.0;;;3.0;;
23360;SDS011;11852;50.082;18.554;2023-05-24T04:09:06;5.0;;;2.0;;
23360;SDS011;11852;50.082;18.554;2023-05-24T04:10:14;5.0;;;2.0;;
23360;SDS011;11852;50.082;18.554;2023-05-24T04:11:24;5.0;;;2.0;;
23360;SDS011;11852;50.082;18.554;2023-05-24T04:12:30;5.0;;;2.0;;
23360;SDS011;11852;50.082;18.554;2023-05-24T04:13:38;6.0;;;3.0;;
23360;SDS011;11852;50.082;18.554;2023-05-24T04:14:45;6.0;;;2.0;;
23360;SDS011;11852;50.082;18.554;2023-05-24T04:15:52;5.0;;;2.0;;
23360;SDS011;11852;50.082;18.554;2023-05-24T04:16:59;5.0;;;2.0;;
23360;SDS011;11852;50.082;18.554;2023-05-24T04:18:07;5.0;;;2.0;;
23360;SDS011;11852;50.082;18.554;2023-05-24T04:19:16;4.0;;;1.0;;
23360;SDS011;11852;50.082;18.554;2023-05-24T04:20:23;4.0;;;2.0;;
23360;SDS011;11852;50.082;18.554;2023-05-24T04:21:33;4.0;;;2.0;;
23360;SDS011;11852;50.082;18.554;2023-05-24T04:22:40;4.0;;;1.0;;
23360;SDS011;11852;50.082;18.554;2023-05-24T04:23:47;5.0;;;1.0;;
23360;SDS011;11852;50.082;18.554;2023-05-24T04:24:54;4.0;;;2.0;;
23360;SDS011;11852;50.082;18.554;2023-05-24T04:26:01;5.0;;;2.0;;
23360;SDS011;11852;50.082;18.554;2023-05-24T04:27:09;5.0;;;2.0;;
23360;SDS011;11852;50.082;18.554;2023-05-24T04:28:16;4.0;;;1.0;;
23360;SDS011;11852;50.082;18.554;2023-05-24T04:29:23;4.0;;;1.0;;
23360;SDS011;11852;50.082;18.554;2023-05-24T04:30:31;4.0;;;2.0;;
23360;SDS011;11852;50.082;18.554;2023-05-24T04:31:39;4.0;;;2.0;;
23360;SDS011;11852;50.082;18.554;2023-05-24T04:32:47;5.0;;;1.0;;
23360;SDS011;11852;50.082;18.554;2023-05-24T04:33:55;3.0;;;1.0;;
23360;SDS011;11852;50.082;18.554;2023-05-24T04:35:01;4.0;;;1.0;;
23360;SDS011;11852;50.082;18.554;2023-05-24T04:36:09;4.0;;;1.0;;
23360;SDS011;11852;50.082;18.554;2023-05-24T04:37:16;4.0;;;1.0;;
23360;SDS011;11852;50.082;18.554;2023-05-24T04:38:23;4.0;;;1.0;;
23360;SDS011;11852;50.082;18.554;2023-05-24T04:39:31;4.0;;;2.0;;
23360;SDS011;11852;50.082;18.554;2023-05-24T04:40:38;4.0;;;2.0;;
23360;SDS011;11852;50.082;18.554;2023-05-24T04:41:50;4.0;;;2.0;;
23360;SDS011;11852;50.082;18.554;2023-05-24T04:42:57;5.0;;;1.0;;
23360;SDS011;11852;50.082;18.554;2023-05-24T04:44:07;4.0;;;1.0;;
23360;SDS011;11852;50.082;18.554;2023-05-24T04:45:14;5.0;;;1.0;;
23360;SDS011;11852;50.082;18.554;2023-05-24T04:46:21;8.0;;;2.0;;
23360;SDS011;11852;50.082;18.554;2023-05-24T04:47:29;4.0;;;1.0;;
23360;SDS011;11852;50.082;18.554;2023-05-24T04:48:36;6.0;;;1.0;;
23360;SDS011;11852;50.082;18.554;2023-05-24T04:49:46;5.0;;;1.0;;
23360;SDS011;11852;50.082;18.554;2023-05-24T04:50:53;4.0;;;1.0;;
23360;SDS011;11852;50.082;18.554;2023-05-24T04:51:59;4.0;;;1.0;;
23360;SDS011;11852;50.082;18.554;2023-05-24T04:53:06;4.0;;;1.0;;
23360;SDS011;11852;50.082;18.554;2023-05-24T04:54:13;3.0;;;1.0;;
23360;SDS011;11852;50.082;18.554;2023-05-24T04:55:20;3.0;;;1.0;;
23360;SDS011;11852;50.082;18.554;2023-05-24T04:56:28;4.0;;;1.0;;
23360;SDS011;11852;50.082;18.554;2023-05-24T04:57:35;5.0;;;1.0;;
23360;SDS011;11852;50.082;18.554;2023-05-24T04:58:42;3.0;;;1.0;;
23360;SDS011;11852;50.082;18.554;2023-05-24T04:59:49;4.0;;;1.0;;
23360;SDS011;11852;50.082;18.554;2023-05-24T05:00:59;5.0;;;1.0;;
23360;SDS011;11852;50.082;18.554;2023-05-24T05:02:05;5.0;;;1.0;;
23360;SDS011;11852;50.082;18.554;2023-05-24T05:03:22;4.0;;;1.0;;
23360;SDS011;11852;50.082;18.554;2023-05-24T05:04:30;6.0;;;1.0;;
23360;SDS011;11852;50.082;18.554;2023-05-24T05:05:37;5.0;;;1.0;;
23360;SDS011;11852;50.082;18.554;2023-05-24T05:06:45;4.0;;;1.0;;
23360;SDS011;11852;50.082;18.554;2023-05-24T05:07:52;4.0;;;1.0;;
23360;SDS011;11852;50.082;18.554;2023-05-24T05:09:00;4.0;;;1.0;;
23360;SDS011;11852;50.082;18.554;2023-05-24T05:10:08;4.0;;;1.0;;
23360;SDS011;11852;50.082;18.554;2023-05-24T05:11:15;3.0;;;1.0;;
23360;SDS011;11852;50.082;18.554;2023-05-24T05:12:25;3.0;;;1.0;;
23360;SDS011;11852;50.082;18.554;2023-05-24T05:13:33;4.0;;;1.0;;
23360;SDS011;11852;50.082;18.554;2023-05-24T05:14:40;4.0;;;1.0;;
23360;SDS011;11852;50.082;18.554;2023-05-24T05:15:50;4.0;;;1.0;;
23360;SDS011;11852;50.082;18.554;2023-05-24T05:16:57;4.0;;;1.0;;
23360;SDS011;11852;50.082;18.554;2023-05-24T05:18:07;4.0;;;1.0;;
23360;SDS011;11852;50.082;18.554;2023-05-24T05:19:17;4.0;;;1.0;;
23360;SDS011;11852;50.082;18.554;2023-05-24T05:20:26;4.0;;;1.0;;
23360;SDS011;11852;50.082;18.554;2023-05-24T05:21:33;5.0;;;1.0;;
23360;SDS011;11852;50.082;18.554;2023-05-24T05:22:44;4.0;;;1.0;;
23360;SDS011;11852;50.082;18.554;2023-05-24T05:23:51;4.0;;;1.0;;
23360;SDS011;11852;50.082;18.554;2023-05-24T05:24:59;4.0;;;1.0;;
23360;SDS011;11852;50.082;18.554;2023-05-24T05:26:06;5.0;;;1.0;;
23360;SDS011;11852;50.082;18.554;2023-05-24T05:27:12;4.0;;;1.0;;
23360;SDS011;11852;50.082;18.554;2023-05-24T05:28:20;5.0;;;1.0;;
23360;SDS011;11852;50.082;18.554;2023-05-24T05:29:27;4.0;;;1.0;;
23360;SDS011;11852;50.082;18.554;2023-05-24T05:30:34;4.0;;;1.0;;
23360;SDS011;11852;50.082;18.554;2023-05-24T05:31:42;4.0;;;1.0;;
23360;SDS011;11852;50.082;18.554;2023-05-24T05:32:49;5.0;;;1.0;;
23360;SDS011;11852;50.082;18.554;2023-05-24T05:33:56;3.0;;;1.0;;
23360;SDS011;11852;50.082;18.554;2023-05-24T05:35:04;4.0;;;1.0;;
23360;SDS011;11852;50.082;18.554;2023-05-24T05:36:16;5.0;;;1.0;;
23360;SDS011;11852;50.082;18.554;2023-05-24T05:37:23;4.0;;;1.0;;
23360;SDS011;11852;50.082;18.554;2023-05-24T05:38:30;6.0;;;1.0;;
23360;SDS011;11852;50.082;18.554;2023-05-24T05:39:37;4.0;;;1.0;;
23360;SDS011;11852;50.082;18.554;2023-05-24T05:40:44;5.0;;;1.0;;
23360;SDS011;11852;50.082;18.554;2023-05-24T05:41:56;5.0;;;1.0;;
23360;SDS011;11852;50.082;18.554;2023-05-24T05:43:03;5.0;;;1.0;;
23360;SDS011;11852;50.082;18.554;2023-05-24T05:44:11;5.0;;;2.0;;
23360;SDS011;11852;50.082;18.554;2023-05-24T05:45:18;4.0;;;2.0;;
23360;SDS011;11852;50.082;18.554;2023-05-24T05:46:25;5.0;;;2.0;;
23360;SDS011;11852;50.082;18.554;2023-05-24T05:47:32;5.0;;;1.0;;
23360;SDS011;11852;50.082;18.554;2023-05-24T05:48:41;7.0;;;1.0;;
23360;SDS011;11852;50.082;18.554;2023-05-24T05:49:48;8.0;;;1.0;;
23360;SDS011;11852;50.082;18.554;2023-05-24T05:50:55;4.0;;;2.0;;
23360;SDS011;11852;50.082;18.554;2023-05-24T05:52:03;4.0;;;1.0;;
23360;SDS011;11852;50.082;18.554;2023-05-24T05:53:11;7.0;;;1.0;;
23360;SDS011;11852;50.082;18.554;2023-05-24T05:54:20;5.0;;;1.0;;
23360;SDS011;11852;50.082;18.554;2023-05-24T05:55:27;4.0;;;1.0;;
23360;SDS011;11852;50.082;18.554;2023-05-24T05:56:34;4.0;;;1.0;;
23360;SDS011;11852;50.082;18.554;2023-05-24T05:57:41;5.0;;;1.0;;
23360;SDS011;11852;50.082;18.554;2023-05-24T05:58:48;4.0;;;1.0;;
23360;SDS011;11852;50.082;18.554;2023-05-24T05:59:55;5.0;;;2.0;;
23360;SDS011;11852;50.082;18.554;2023-05-24T06:01:03;4.0;;;1.0;;
23360;SDS011;11852;50.082;18.554;2023-05-24T06:02:10;4.0;;;2.0;;
23360;SDS011;11852;50.082;18.554;2023-05-24T06:03:17;4.0;;;1.0;;
23360;SDS011;11852;50.082;18.554;2023-05-24T06:04:24;6.0;;;2.0;;
23360;SDS011;11852;50.082;18.554;2023-05-24T06:05:37;5.0;;;1.0;;
23360;SDS011;11852;50.082;18.554;2023-05-24T06:06:45;6.0;;;1.0;;
23360;SDS011;11852;50.082;18.554;2023-05-24T06:07:55;6.0;;;1.0;;
23360;SDS011;11852;50.082;18.554;2023-05-24T06:09:02;5.0;;;1.0;;
23360;SDS011;11852;50.082;18.554;2023-05-24T06:10:10;4.0;;;1.0;;
23360;SDS011;11852;50.082;18.554;2023-05-24T06:11:17;5.0;;;2.0;;
23360;SDS011;11852;50.082;18.554;2023-05-24T06:12:25;5.0;;;1.0;;
23360;SDS011;11852;50.082;18.554;2023-05-24T06:13:32;5.0;;;2.0;;
23360;SDS011;11852;50.082;18.554;2023-05-24T06:14:39;4.0;;;1.0;;
23360;SDS011;11852;50.082;18.554;2023-05-24T06:15:50;5.0;;;1.0;;
23360;SDS011;11852;50.082;18.554;2023-05-24T06:16:57;5.0;;;2.0;;
23360;SDS011;11852;50.082;18.554;2023-05-24T06:18:06;4.0;;;2.0;;
23360;SDS011;11852;50.082;18.554;2023-05-24T06:19:13;6.0;;;2.0;;
23360;SDS011;11852;50.082;18.554;2023-05-24T06:20:21;6.0;;;2.0;;
23360;SDS011;11852;50.082;18.554;2023-05-24T06:21:28;5.0;;;2.0;;
23360;SDS011;11852;50.082;18.554;2023-05-24T06:22:37;6.0;;;2.0;;
23360;SDS011;11852;50.082;18.554;2023-05-24T06:23:45;6.0;;;2.0;;
23360;SDS011;11852;50.082;18.554;2023-05-24T06:24:52;6.0;;;3.0;;
23360;SDS011;11852;50.082;18.554;2023-05-24T06:25:59;5.0;;;3.0;;
23360;SDS011;11852;50.082;18.554;2023-05-24T06:27:06;7.0;;;2.0;;
23360;SDS011;11852;50.082;18.554;2023-05-24T06:28:16;5.0;;;2.0;;
23360;SDS011;11852;50.082;18.554;2023-05-24T06:29:24;5.0;;;2.0;;
23360;SDS011;11852;50.082;18.554;2023-05-24T06:30:34;5.0;;;2.0;;
23360;SDS011;11852;50.082;18.554;2023-05-24T06:31:41;5.0;;;3.0;;
23360;SDS011;11852;50.082;18.554;2023-05-24T06:35:28;8.0;;;4.0;;
23360;SDS011;11852;50.082;18.554;2023-05-24T06:39:25;8.0;;;5.0;;
23360;SDS011;11852;50.082;18.554;2023-05-24T06:40:38;10.0;;;6.0;;
23360;SDS011;11852;50.082;18.554;2023-05-24T06:41:48;10.0;;;6.0;;
23360;SDS011;11852;50.082;18.554;2023-05-24T06:43:13;9.0;;;6.0;;
23360;SDS011;11852;50.082;18.554;2023-05-24T06:44:51;9.0;;;6.0;;
23360;SDS011;11852;50.082;18.554;2023-05-24T06:45:57;10.0;;;6.0;;
23360;SDS011;11852;50.082;18.554;2023-05-24T06:47:09;9.0;;;5.0;;
23360;SDS011;11852;50.082;18.554;2023-05-24T06:48:16;8.0;;;5.0;;
23360;SDS011;11852;50.082;18.554;2023-05-24T06:49:23;8.0;;;5.0;;
23360;SDS011;11852;50.082;18.554;2023-05-24T06:50:30;8.0;;;5.0;;
23360;SDS011;11852;50.082;18.554;2023-05-24T06:51:36;7.0;;;4.0;;
23360;SDS011;11852;50.082;18.554;2023-05-24T06:52:43;9.0;;;5.0;;
23360;SDS011;11852;50.082;18.554;2023-05-24T06:53:50;8.0;;;4.0;;
23360;SDS011;11852;50.082;18.554;2023-05-24T06:54:57;10.0;;;4.0;;
23360;SDS011;11852;50.082;18.554;2023-05-24T06:56:04;8.0;;;4.0;;
23360;SDS011;11852;50.082;18.554;2023-05-24T06:57:11;7.0;;;4.0;;
23360;SDS011;11852;50.082;18.554;2023-05-24T06:58:18;6.0;;;4.0;;
23360;SDS011;11852;50.082;18.554;2023-05-24T06:59:24;7.0;;;3.0;;
23360;SDS011;11852;50.082;18.554;2023-05-24T07:00:31;9.0;;;3.0;;
23360;SDS011;11852;50.082;18.554;2023-05-24T07:01:38;6.0;;;3.0;;
23360;SDS011;11852;50.082;18.554;2023-05-24T07:02:45;7.0;;;3.0;;
23360;SDS011;11852;50.082;18.554;2023-05-24T07:03:52;9.0;;;4.0;;
23360;SDS011;11852;50.082;18.554;2023-05-24T07:04:59;8.0;;;4.0;;
23360;SDS011;11852;50.082;18.554;2023-05-24T07:06:06;7.0;;;4.0;;
23360;SDS011;11852;50.082;18.554;2023-05-24T07:07:12;8.0;;;5.0;;
23360;SDS011;11852;50.082;18.554;2023-05-24T07:08:19;8.0;;;5.0;;
23360;SDS011;11852;50.082;18.554;2023-05-24T07:09:26;8.0;;;5.0;;
23360;SDS011;11852;50.082;18.554;2023-05-24T07:10:33;7.0;;;4.0;;
23360;SDS011;11852;50.082;18.554;2023-05-24T07:11:40;8.0;;;4.0;;
23360;SDS011;11852;50.082;18.554;2023-05-24T07:12:47;7.0;;;4.0;;
23360;SDS011;11852;50.082;18.554;2023-05-24T07:13:53;7.0;;;5.0;;
23360;SDS011;11852;50.082;18.554;2023-05-24T07:15:00;9.0;;;5.0;;
23360;SDS011;11852;50.082;18.554;2023-05-24T07:16:07;7.0;;;4.0;;
23360;SDS011;11852;50.082;18.554;2023-05-24T07:17:14;8.0;;;5.0;;
23360;SDS011;11852;50.082;18.554;2023-05-24T07:18:21;9.0;;;6.0;;
23360;SDS011;11852;50.082;18.554;2023-05-24T07:19:28;8.0;;;4.0;;
23360;SDS011;11852;50.082;18.554;2023-05-24T07:20:34;8.0;;;5.0;;
23360;SDS011;11852;50.082;18.554;2023-05-24T07:21:41;7.0;;;5.0;;
23360;SDS011;11852;50.082;18.554;2023-05-24T07:22:48;8.0;;;5.0;;
23360;SDS011;11852;50.082;18.554;2023-05-24T07:23:55;8.0;;;4.0;;
23360;SDS011;11852;50.082;18.554;2023-05-24T07:25:02;9.0;;;5.0;;
23360;SDS011;11852;50.082;18.554;2023-05-24T07:26:09;17.0;;;5.0;;
23360;SDS011;11852;50.082;18.554;2023-05-24T07:27:16;8.0;;;5.0;;
23360;SDS011;11852;50.082;18.554;2023-05-24T07:28:23;8.0;;;5.0;;
23360;SDS011;11852;50.082;18.554;2023-05-24T07:29:30;9.0;;;5.0;;
23360;SDS011;11852;50.082;18.554;2023-05-24T07:30:37;8.0;;;5.0;;
23360;SDS011;11852;50.082;18.554;2023-05-24T07:31:43;9.0;;;5.0;;
23360;SDS011;11852;50.082;18.554;2023-05-24T07:32:50;8.0;;;6.0;;
23360;SDS011;11852;50.082;18.554;2023-05-24T07:33:57;9.0;;;5.0;;
23360;SDS011;11852;50.082;18.554;2023-05-24T07:35:04;7.0;;;4.0;;
23360;SDS011;11852;50.082;18.554;2023-05-24T07:36:11;7.0;;;4.0;;
23360;SDS011;11852;50.082;18.554;2023-05-24T07:37:18;7.0;;;4.0;;
23360;SDS011;11852;50.082;18.554;2023-05-24T07:38:24;6.0;;;3.0;;
23360;SDS011;11852;50.082;18.554;2023-05-24T07:39:31;7.0;;;4.0;;
23360;SDS011;11852;50.082;18.554;2023-05-24T07:40:38;5.0;;;3.0;;
23360;SDS011;11852;50.082;18.554;2023-05-24T07:41:45;5.0;;;3.0;;
23360;SDS011;11852;50.082;18.554;2023-05-24T07:42:52;6.0;;;2.0;;
23360;SDS011;11852;50.082;18.554;2023-05-24T07:43:59;6.0;;;2.0;;
23360;SDS011;11852;50.082;18.554;2023-05-24T07:45:06;5.0;;;2.0;;
23360;SDS011;11852;50.082;18.554;2023-05-24T07:46:13;5.0;;;2.0;;
23360;SDS011;11852;50.082;18.554;2023-05-24T07:47:19;4.0;;;2.0;;
23360;SDS011;11852;50.082;18.554;2023-05-24T07:48:26;3.0;;;1.0;;
23360;SDS011;11852;50.082;18.554;2023-05-24T07:49:33;4.0;;;1.0;;
23360;SDS011;11852;50.082;18.554;2023-05-24T07:50:40;4.0;;;1.0;;
23360;SDS011;11852;50.082;18.554;2023-05-24T07:51:47;4.0;;;1.0;;
23360;SDS011;11852;50.082;18.554;2023-05-24T07:52:57;4.0;;;1.0;;
23360;SDS011;11852;50.082;18.554;2023-05-24T07:54:04;4.0;;;1.0;;
23360;SDS011;11852;50.082;18.554;2023-05-24T07:55:10;4.0;;;1.0;;
23360;SDS011;11852;50.082;18.554;2023-05-24T07:56:17;3.0;;;1.0;;
23360;SDS011;11852;50.082;18.554;2023-05-24T07:57:24;4.0;;;1.0;;
23360;SDS011;11852;50.082;18.554;2023-05-24T07:58:31;3.0;;;1.0;;
23360;SDS011;11852;50.082;18.554;2023-05-24T07:59:38;4.0;;;1.0;;
23360;SDS011;11852;50.082;18.554;2023-05-24T08:00:45;4.0;;;1.0;;
23360;SDS011;11852;50.082;18.554;2023-05-24T08:01:51;4.0;;;1.0;;
23360;SDS011;11852;50.082;18.554;2023-05-24T08:02:59;4.0;;;1.0;;
23360;SDS011;11852;50.082;18.554;2023-05-24T08:04:05;4.0;;;1.0;;